Svartfoss — V2PR3 — position and weather

sailwx.info

Track history (hours):
 
Tides and Currents Weather Stations Pressure Air Temp Water Temp Dewpoint Dewpoint Depression Visibility Wind Speed Wind Dir Waves Ship Positions

Svartfoss

Last reported at 2016-May-25 18:33 UTC. Time now 2016-May-25 18:51 UTC.
Position N 52°29' E 004°25'.

Length 80 m; draft 5.5 m.

Type: Cargo ship. MMSI: 304882000.

Date/timePositionNaut miles runAvg speedWind from/ knotsBaromVisibWave heightAir tempDewpointWater temp
2016-May-25 18:33N 52°29' E 004°25'7 7.1
2016-May-25 17:34N 52°28' E 004°36'2 2.1
2016-May-25 16:33N 52°28' E 004°40'0 0.0
2016-May-25 15:31N 52°28' E 004°40'0 0.0
2016-May-25 14:31N 52°28' E 004°40'0 0.0
2016-May-25 13:33N 52°28' E 004°40'0 0.0
2016-May-25 12:33N 52°28' E 004°40'0 0.0
2016-May-25 11:33N 52°28' E 004°40'0 0.0
2016-May-25 10:33N 52°28' E 004°40'0 0.0
2016-May-25 09:33N 52°28' E 004°40'0 0.0
2016-May-25 08:33N 52°28' E 004°40'0 0.0
2016-May-25 07:33N 52°28' E 004°40'0 0.0
2016-May-25 06:33N 52°28' E 004°40'0 0.0
2016-May-25 05:30N 52°28' E 004°40'0 0.0
2016-May-25 04:33N 52°28' E 004°40'0 0.0
2016-May-25 03:33N 52°28' E 004°40'0 0.0
2016-May-25 02:33N 52°28' E 004°40'0 0.0
2016-May-25 01:33N 52°28' E 004°40'0 0.0
2016-May-25 00:33N 52°28' E 004°40'0 0.0
2016-May-24 23:33N 52°28' E 004°40'0 0.0
2016-May-24 22:33N 52°28' E 004°40'0 0.0
2016-May-24 21:33N 52°28' E 004°40'0 0.0
2016-May-24 20:33N 52°28' E 004°40'0 0.0
2016-May-24 19:33N 52°28' E 004°40'0 0.0
2016-May-24 18:33N 52°28' E 004°40'0 0.0
2016-May-24 17:33N 52°28' E 004°40'0 0.0
2016-May-24 16:33N 52°28' E 004°40'0 0.0
2016-May-24 15:33N 52°28' E 004°40'0 0.0
2016-May-24 14:33N 52°28' E 004°40'0 0.0
2016-May-24 13:33N 52°28' E 004°40'0 0.0
2016-May-24 12:33N 52°28' E 004°40'0 0.0
2016-May-24 11:33N 52°28' E 004°40'0 0.0
2016-May-24 10:33N 52°28' E 004°40'0 0.0
2016-May-24 09:27N 52°28' E 004°40'0 0.0
2016-May-24 08:32N 52°28' E 004°40'3 2.9
2016-May-24 07:34N 52°28' E 004°35'1010.2
2016-May-24 06:32N 52°38' E 004°30'35714.3
2016-May-23 05:33N 58°34' E 005°24'1414.3
2016-May-23 04:34N 58°48' E 005°27'1514.6
2016-May-23 03:33N 59°02' E 005°34'1312.7
2016-May-23 02:34N 59°01' E 005°59'8 7.6
2016-May-23 01:34N 59°04' E 005°45'1414.0
2016-May-23 00:34N 59°10' E 005°21'1413.9
2016-May-22 23:33N 59°24' E 005°17'1313.0
2016-May-22 22:33N 59°37' E 005°17'1414.1
2016-May-22 21:33N 59°48' E 005°33'12111.8
2016-May-22 11:18N 61°49' E 005°09'6 8.3
2016-May-22 10:33N 61°55' E 005°07'4 4.2
2016-May-22 09:33N 61°59' E 005°08'5 5.3
2016-May-22 08:33N 62°04' E 005°07'1511.7
2016-May-22 07:18N 62°17' E 005°22'123 5.5
2016-May-21 09:11N 63°29' E 008°60'1013.8
2016-May-21 08:27N 63°34' E 009°20'8013.5
2016-May-21 02:29N 64°43' E 010°54'1213.3
2016-May-21 01:33N 64°52' E 011°14'1010.3
2016-May-21 00:33N 64°58' E 011°33'1413.6
2016-May-20 23:33N 65°10' E 011°50'6210.2
2016-May-20 17:29N 66°07' E 012°45'1714.2
2016-May-20 16:16N 66°23' E 012°58'2913.7
2016-May-20 14:11N 66°51' E 013°18'6514.0
2016-May-20 09:31N 67°53' E 014°10'  
2016-May-16 15:33N 69°02' E 033°03'4 3.5
2016-May-16 14:32N 68°58' E 033°03'0 0.0
2016-May-16 13:32N 68°58' E 033°03'0 0.0
2016-May-16 12:32N 68°58' E 033°03'0 0.0
2016-May-16 11:32N 68°58' E 033°03'0 0.0
2016-May-16 10:32N 68°58' E 033°03'0 0.0
2016-May-16 09:32N 68°58' E 033°03'2 1.5
2016-May-16 08:30N 68°56' E 033°02'0 0.0
2016-May-16 07:33N 68°56' E 033°02'0 0.0
2016-May-16 06:33N 68°56' E 033°02'0 0.0
2016-May-16 05:33N 68°56' E 033°02'0 0.0
2016-May-16 04:33N 68°56' E 033°02'0 0.0
2016-May-16 03:32N 68°56' E 033°02'0 0.0
2016-May-16 02:32N 68°56' E 033°02'0 0.0
2016-May-16 01:29N 68°56' E 033°02'0 0.0
2016-May-16 00:32N 68°56' E 033°02'0 0.0
2016-May-15 23:32N 68°56' E 033°02'0 0.0
2016-May-15 22:32N 68°56' E 033°02'0 0.0
2016-May-15 21:29N 68°56' E 033°02'0 0.0
2016-May-15 20:29N 68°56' E 033°02'0 0.0
2016-May-15 19:32N 68°56' E 033°02'  
Track history (hours):
 
Tides and Currents Weather Stations Pressure Air Temp Water Temp Dewpoint Dewpoint Depression Visibility Wind Speed Wind Dir Waves Ship Positions

Svartfoss

Last reported at 2016-May-25 18:33 UTC. Time now 2016-May-25 18:51 UTC.
Position N 52°29' E 004°25'.

Length 80 m; draft 5.5 m.

Type: Cargo ship. MMSI: 304882000.

Date/timePositionNaut miles runAvg speedWind from/ knotsBaromVisibWave heightAir tempDewpointWater temp
2016-May-25 18:33N 52°29' E 004°25'7 7.1
2016-May-25 17:34N 52°28' E 004°36'2 2.1
2016-May-25 16:33N 52°28' E 004°40'0 0.0
2016-May-25 15:31N 52°28' E 004°40'0 0.0
2016-May-25 14:31N 52°28' E 004°40'0 0.0
2016-May-25 13:33N 52°28' E 004°40'0 0.0
2016-May-25 12:33N 52°28' E 004°40'0 0.0
2016-May-25 11:33N 52°28' E 004°40'0 0.0
2016-May-25 10:33N 52°28' E 004°40'0 0.0
2016-May-25 09:33N 52°28' E 004°40'0 0.0
2016-May-25 08:33N 52°28' E 004°40'0 0.0
2016-May-25 07:33N 52°28' E 004°40'0 0.0
2016-May-25 06:33N 52°28' E 004°40'0 0.0
2016-May-25 05:30N 52°28' E 004°40'0 0.0
2016-May-25 04:33N 52°28' E 004°40'0 0.0
2016-May-25 03:33N 52°28' E 004°40'0 0.0
2016-May-25 02:33N 52°28' E 004°40'0 0.0
2016-May-25 01:33N 52°28' E 004°40'0 0.0
2016-May-25 00:33N 52°28' E 004°40'0 0.0
2016-May-24 23:33N 52°28' E 004°40'0 0.0
2016-May-24 22:33N 52°28' E 004°40'0 0.0
2016-May-24 21:33N 52°28' E 004°40'0 0.0
2016-May-24 20:33N 52°28' E 004°40'0 0.0
2016-May-24 19:33N 52°28' E 004°40'0 0.0
2016-May-24 18:33N 52°28' E 004°40'0 0.0
2016-May-24 17:33N 52°28' E 004°40'0 0.0
2016-May-24 16:33N 52°28' E 004°40'0 0.0
2016-May-24 15:33N 52°28' E 004°40'0 0.0
2016-May-24 14:33N 52°28' E 004°40'0 0.0
2016-May-24 13:33N 52°28' E 004°40'0 0.0
2016-May-24 12:33N 52°28' E 004°40'0 0.0
2016-May-24 11:33N 52°28' E 004°40'0 0.0
2016-May-24 10:33N 52°28' E 004°40'0 0.0
2016-May-24 09:27N 52°28' E 004°40'0 0.0
2016-May-24 08:32N 52°28' E 004°40'3 2.9
2016-May-24 07:34N 52°28' E 004°35'1010.2
2016-May-24 06:32N 52°38' E 004°30'35714.3
2016-May-23 05:33N 58°34' E 005°24'1414.3
2016-May-23 04:34N 58°48' E 005°27'1514.6
2016-May-23 03:33N 59°02' E 005°34'1312.7
2016-May-23 02:34N 59°01' E 005°59'8 7.6
2016-May-23 01:34N 59°04' E 005°45'1414.0
2016-May-23 00:34N 59°10' E 005°21'1413.9
2016-May-22 23:33N 59°24' E 005°17'1313.0
2016-May-22 22:33N 59°37' E 005°17'1414.1
2016-May-22 21:33N 59°48' E 005°33'12111.8
2016-May-22 11:18N 61°49' E 005°09'6 8.3
2016-May-22 10:33N 61°55' E 005°07'4 4.2
2016-May-22 09:33N 61°59' E 005°08'5 5.3
2016-May-22 08:33N 62°04' E 005°07'1511.7
2016-May-22 07:18N 62°17' E 005°22'123 5.5
2016-May-21 09:11N 63°29' E 008°60'1013.8
2016-May-21 08:27N 63°34' E 009°20'8013.5
2016-May-21 02:29N 64°43' E 010°54'1213.3
2016-May-21 01:33N 64°52' E 011°14'1010.3
2016-May-21 00:33N 64°58' E 011°33'1413.6
2016-May-20 23:33N 65°10' E 011°50'6210.2
2016-May-20 17:29N 66°07' E 012°45'1714.2
2016-May-20 16:16N 66°23' E 012°58'2913.7
2016-May-20 14:11N 66°51' E 013°18'6514.0
2016-May-20 09:31N 67°53' E 014°10'  
2016-May-16 15:33N 69°02' E 033°03'4 3.5
2016-May-16 14:32N 68°58' E 033°03'0 0.0
2016-May-16 13:32N 68°58' E 033°03'0 0.0
2016-May-16 12:32N 68°58' E 033°03'0 0.0
2016-May-16 11:32N 68°58' E 033°03'0 0.0
2016-May-16 10:32N 68°58' E 033°03'0 0.0
2016-May-16 09:32N 68°58' E 033°03'2 1.5
2016-May-16 08:30N 68°56' E 033°02'0 0.0
2016-May-16 07:33N 68°56' E 033°02'0 0.0
2016-May-16 06:33N 68°56' E 033°02'0 0.0
2016-May-16 05:33N 68°56' E 033°02'0 0.0
2016-May-16 04:33N 68°56' E 033°02'0 0.0
2016-May-16 03:32N 68°56' E 033°02'0 0.0
2016-May-16 02:32N 68°56' E 033°02'0 0.0
2016-May-16 01:29N 68°56' E 033°02'0 0.0
2016-May-16 00:32N 68°56' E 033°02'0 0.0
2016-May-15 23:32N 68°56' E 033°02'0 0.0
2016-May-15 22:32N 68°56' E 033°02'0 0.0
2016-May-15 21:29N 68°56' E 033°02'0 0.0
2016-May-15 20:29N 68°56' E 033°02'0 0.0
2016-May-15 19:32N 68°56' E 033°02'  

Dump ship's entire track history